Time;durP1;ratioP1;P1;durP2;ratioP2;P2;SDS_P1;SDS_P2;PMS_P1;PMS_P2;Temp;Humidity;BMP_temperature;BMP_pressure;BME280_temperature;BME280_humidity;BME280_pressure;Samples;Min_cycle;Max_cycle;Signal;HPM_P1;HPM_P2
2022/07/08 00:00:45;;;;;;;4.57;1.30;;;17.80;89.20;;;;;;2083518;28;20092;-69
2022/07/08 00:01:46;;;;;;;5.68;1.75;;;17.80;89.30;;;;;;2082819;28;20018;-69
2022/07/08 00:02:47;;;;;;;6.57;1.27;;;17.80;89.50;;;;;;2082604;28;20052;-69
2022/07/08 00:03:48;;;;;;;4.78;1.42;;;17.80;89.90;;;;;;2082659;28;20028;-69
2022/07/08 00:04:49;;;;;;;6.07;1.60;;;17.80;90.20;;;;;;2084623;28;20515;-69
2022/07/08 00:05:49;;;;;;;4.53;1.30;;;17.80;90.40;;;;;;2082151;28;20028;-69
2022/07/08 00:06:50;;;;;;;4.75;1.52;;;17.70;90.70;;;;;;2082087;28;20028;-69
2022/07/08 00:07:51;;;;;;;6.50;1.77;;;17.70;90.60;;;;;;2082072;28;20083;-69
2022/07/08 00:08:51;;;;;;;6.57;1.65;;;17.70;90.80;;;;;;2085109;28;20025;-69
2022/07/08 00:09:52;;;;;;;6.63;1.70;;;17.70;91.10;;;;;;2083694;28;20031;-69
2022/07/08 00:10:53;;;;;;;6.57;1.50;;;17.80;91.10;;;;;;2084841;28;20039;-69
2022/07/08 00:11:54;;;;;;;5.70;2.17;;;17.70;91.20;;;;;;2083488;28;20025;-69
2022/07/08 00:12:54;;;;;;;7.25;1.40;;;17.80;91.40;;;;;;2082692;28;20029;-69
2022/07/08 00:13:55;;;;;;;7.35;1.58;;;17.80;91.30;;;;;;2083117;28;20025;-69
2022/07/08 00:14:56;;;;;;;4.38;1.48;;;17.80;91.40;;;;;;2084618;28;20039;-69
2022/07/08 00:15:56;;;;;;;4.80;1.75;;;17.80;91.20;;;;;;2083799;28;20014;-69
2022/07/08 00:16:58;;;;;;;5.30;1.58;;;17.80;91.20;;;;;;2086035;28;20038;-69
2022/07/08 00:17:58;;;;;;;5.35;2.03;;;17.80;91.30;;;;;;2086527;28;20545;-69
2022/07/08 00:18:59;;;;;;;4.32;1.60;;;17.80;91.80;;;;;;2085486;28;20388;-69
2022/07/08 00:20:00;;;;;;;4.50;1.75;;;17.80;91.70;;;;;;2085367;28;20028;-69
2022/07/08 00:21:01;;;;;;;5.55;1.33;;;17.90;91.50;;;;;;2084157;28;20087;-69
2022/07/08 00:22:02;;;;;;;9.27;2.05;;;17.90;91.30;;;;;;2082486;28;20477;-69
2022/07/08 00:23:02;;;;;;;6.72;2.05;;;17.90;91.80;;;;;;2084863;28;20563;-69
2022/07/08 00:24:04;;;;;;;5.88;1.75;;;17.90;92.30;;;;;;2081129;28;20104;-69
2022/07/08 00:25:05;;;;;;;7.72;1.95;;;17.90;92.20;;;;;;2082782;28;20036;-69
2022/07/08 00:26:06;;;;;;;5.68;1.60;;;17.90;92.40;;;;;;2082482;28;20465;-69
2022/07/08 00:27:06;;;;;;;5.25;1.25;;;17.90;92.40;;;;;;2083604;28;20033;-69
2022/07/08 00:28:07;;;;;;;5.47;1.55;;;17.90;92.20;;;;;;2083204;28;20044;-69
2022/07/08 00:29:07;;;;;;;6.68;2.15;;;17.90;92.70;;;;;;2081799;28;20075;-69
2022/07/08 00:30:09;;;;;;;6.13;1.40;;;17.90;92.70;;;;;;2083101;28;20040;-69
2022/07/08 00:31:09;;;;;;;6.55;1.80;;;17.80;92.30;;;;;;2085975;28;20032;-69
2022/07/08 00:32:10;;;;;;;6.75;1.58;;;17.80;92.50;;;;;;2085972;28;20026;-69
2022/07/08 00:33:11;;;;;;;5.35;1.65;;;17.80;92.70;;;;;;2084889;28;20314;-69
2022/07/08 00:34:11;;;;;;;4.20;1.67;;;17.80;92.90;;;;;;2083531;28;20025;-69
2022/07/08 00:35:12;;;;;;;6.03;1.98;;;17.80;93.20;;;;;;2082607;28;20500;-69
2022/07/08 00:36:13;;;;;;;4.93;1.38;;;17.70;93.10;;;;;;2087160;28;20025;-69
2022/07/08 00:37:13;;;;;;;6.35;1.48;;;17.70;93.50;;;;;;2083923;28;20025;-69
2022/07/08 00:38:14;;;;;;;6.72;1.92;;;17.70;93.30;;;;;;2082722;28;20060;-69
2022/07/08 00:39:15;;;;;;;8.55;1.80;;;17.70;93.90;;;;;;2083559;28;20720;-69
2022/07/08 00:40:15;;;;;;;6.28;2.00;;;17.70;93.80;;;;;;2082780;28;20104;-69
2022/07/08 00:41:16;;;;;;;5.22;1.60;;;17.70;93.90;;;;;;2082073;28;20079;-69
2022/07/08 00:42:16;;;;;;;8.52;1.65;;;17.70;94.00;;;;;;2083466;28;20084;-69
2022/07/08 00:43:25;;;;;;;5.95;1.85;;;17.70;94.50;;;;;;2084756;28;20082;-69
2022/07/08 00:44:26;;;;;;;7.65;1.52;;;17.70;94.60;;;;;;2083300;28;20021;-69
2022/07/08 00:45:26;;;;;;;6.38;1.83;;;17.70;94.60;;;;;;2083100;28;20032;-69
2022/07/08 00:46:27;;;;;;;5.32;1.52;;;17.70;94.80;;;;;;2084951;28;20025;-69
2022/07/08 00:47:28;;;;;;;4.18;1.70;;;17.70;94.90;;;;;;2083508;28;20147;-69
2022/07/08 00:48:29;;;;;;;8.82;2.03;;;17.70;94.60;;;;;;2081884;28;20036;-69
2022/07/08 00:49:29;;;;;;;9.95;2.30;;;17.70;95.00;;;;;;2085526;28;20758;-69
2022/07/08 00:50:30;;;;;;;6.50;1.75;;;17.70;95.40;;;;;;2084745;28;20532;-69
2022/07/08 00:51:33;;;;;;;5.22;1.50;;;17.70;95.90;;;;;;2086494;28;20025;-69
2022/07/08 00:52:34;;;;;;;8.15;1.50;;;17.70;94.80;;;;;;2087599;28;20017;-69
2022/07/08 00:53:37;;;;;;;4.60;1.60;;;17.70;95.00;;;;;;2086775;28;20022;-69
2022/07/08 00:54:38;;;;;;;6.45;1.83;;;17.80;95.30;;;;;;2081229;28;20484;-69
2022/07/08 00:55:39;;;;;;;5.65;1.52;;;17.70;95.00;;;;;;2083816;28;20036;-69
2022/07/08 00:56:40;;;;;;;6.95;1.95;;;17.70;95.10;;;;;;2084187;28;20045;-69
2022/07/08 00:57:40;;;;;;;12.70;2.10;;;17.80;95.40;;;;;;2084501;28;20479;-69
2022/07/08 00:58:42;;;;;;;5.75;1.60;;;17.70;95.60;;;;;;2083894;28;20021;-69
2022/07/08 00:59:43;;;;;;;8.75;2.38;;;17.70;95.70;;;;;;2084240;28;20040;-69
2022/07/08 01:00:43;;;;;;;9.95;2.00;;;17.70;95.60;;;;;;2082001;28;20025;-69
2022/07/08 01:01:44;;;;;;;6.55;1.75;;;17.70;95.70;;;;;;2083657;28;20489;-69
2022/07/08 01:02:45;;;;;;;7.72;1.83;;;17.70;95.40;;;;;;2085432;28;20100;-69
2022/07/08 01:03:46;;;;;;;5.15;1.48;;;17.70;95.90;;;;;;2081753;28;20030;-69
2022/07/08 01:04:47;;;;;;;10.57;1.95;;;17.70;95.40;;;;;;2083833;28;20899;-69
2022/07/08 01:05:47;;;;;;;11.93;2.75;;;17.70;96.10;;;;;;2085861;28;20546;-69
2022/07/08 01:06:48;;;;;;;6.78;1.48;;;17.70;96.60;;;;;;2084447;28;20032;-69
2022/07/08 01:07:49;;;;;;;4.85;1.50;;;17.70;96.70;;;;;;2086640;28;20046;-69
2022/07/08 01:08:50;;;;;;;8.45;1.65;;;17.70;96.10;;;;;;2085238;28;20392;-69
2022/07/08 01:09:51;;;;;;;7.70;1.77;;;17.70;96.70;;;;;;2085642;28;20378;-69
2022/07/08 01:10:52;;;;;;;8.30;2.10;;;17.70;96.90;;;;;;2082728;28;20128;-69
2022/07/08 01:11:53;;;;;;;4.72;1.45;;;17.70;97.10;;;;;;2082748;28;20037;-69
2022/07/08 01:12:54;;;;;;;9.43;2.35;;;17.70;97.10;;;;;;2086396;28;20101;-69
2022/07/08 01:13:55;;;;;;;6.45;2.03;;;17.70;97.60;;;;;;2086181;28;20036;-69
2022/07/08 01:14:56;;;;;;;5.43;1.70;;;17.60;97.60;;;;;;2086124;28;20073;-69
2022/07/08 01:15:57;;;;;;;8.05;2.20;;;17.70;97.40;;;;;;2086087;28;20025;-69
2022/07/08 01:16:57;;;;;;;8.82;1.95;;;17.60;98.00;;;;;;2086354;28;20021;-69
2022/07/08 01:17:58;;;;;;;6.30;1.70;;;17.60;97.80;;;;;;2085992;28;20021;-69
2022/07/08 01:18:58;;;;;;;7.72;2.20;;;17.70;98.10;;;;;;2085320;28;20095;-69
2022/07/08 01:19:59;;;;;;;9.23;1.85;;;17.60;98.00;;;;;;2083867;28;20024;-69
2022/07/08 01:21:00;;;;;;;8.30;1.92;;;17.60;97.80;;;;;;2086177;28;20024;-69
2022/07/08 01:22:00;;;;;;;7.57;1.67;;;17.60;97.20;;;;;;2087136;28;20166;-69
2022/07/08 01:23:01;;;;;;;5.43;1.85;;;17.60;96.90;;;;;;2086968;28;20404;-69
2022/07/08 01:24:02;;;;;;;6.25;2.10;;;17.70;97.00;;;;;;2085367;28;20022;-69
2022/07/08 01:25:04;;;;;;;7.40;1.67;;;17.60;96.50;;;;;;2083650;28;20049;-69
2022/07/08 01:26:09;;;;;;;10.10;1.67;;;17.70;97.20;;;;;;2084283;28;20021;-69
2022/07/08 01:27:10;;;;;;;7.90;1.98;;;17.70;97.30;;;;;;2085621;28;20021;-69
2022/07/08 01:28:11;;;;;;;9.52;2.03;;;17.70;97.00;;;;;;2085053;28;20044;-69
2022/07/08 01:29:12;;;;;;;6.40;1.80;;;17.70;96.40;;;;;;2086336;28;20036;-69
2022/07/08 01:30:12;;;;;;;5.97;1.63;;;17.70;95.50;;;;;;2085826;28;20640;-69
2022/07/08 01:31:13;;;;;;;5.50;1.58;;;17.60;96.00;;;;;;2085922;28;20500;-69
2022/07/08 01:32:13;;;;;;;6.30;1.77;;;17.60;94.80;;;;;;2086882;28;20029;-69
2022/07/08 01:33:14;;;;;;;5.28;1.70;;;17.60;95.10;;;;;;2084926;28;20060;-69
2022/07/08 01:34:15;;;;;;;7.22;1.70;;;17.70;95.50;;;;;;2085748;28;20021;-69
2022/07/08 01:35:15;;;;;;;7.60;2.05;;;17.60;95.70;;;;;;2084361;28;20022;-69
2022/07/08 01:36:16;;;;;;;6.07;1.33;;;17.70;96.00;;;;;;2085315;28;20025;-69
2022/07/08 01:37:17;;;;;;;4.60;1.27;;;17.60;95.10;;;;;;2086451;28;20124;-69
2022/07/08 01:38:17;;;;;;;7.40;2.00;;;17.60;95.80;;;;;;2085549;28;20033;-69
2022/07/08 01:39:18;;;;;;;9.38;2.03;;;17.60;96.00;;;;;;2083228;28;20070;-69
2022/07/08 01:40:18;;;;;;;5.93;1.55;;;17.60;96.20;;;;;;2085118;28;20101;-69
2022/07/08 01:41:19;;;;;;;4.57;1.50;;;17.60;96.30;;;;;;2079637;28;20056;-69
2022/07/08 01:42:20;;;;;;;4.88;1.60;;;17.60;95.90;;;;;;2084928;28;20595;-69
2022/07/08 01:43:20;;;;;;;4.95;1.63;;;17.60;96.10;;;;;;2082572;28;20022;-69
2022/07/08 01:44:21;;;;;;;7.80;1.65;;;17.60;96.30;;;;;;2085437;28;20040;-69
2022/07/08 01:45:21;;;;;;;8.25;1.90;;;17.60;96.00;;;;;;2086265;28;20021;-69
2022/07/08 01:46:22;;;;;;;9.07;2.17;;;17.60;96.60;;;;;;2085944;28;21047;-69
2022/07/08 01:47:23;;;;;;;13.27;2.78;;;17.60;97.00;;;;;;2086500;28;20040;-69
2022/07/08 01:48:24;;;;;;;8.75;1.95;;;17.60;97.50;;;;;;2084618;28;20108;-69
2022/07/08 01:49:25;;;;;;;7.85;1.75;;;17.60;97.80;;;;;;2085864;28;20028;-69
2022/07/08 01:50:25;;;;;;;6.95;1.60;;;17.70;97.80;;;;;;2086835;28;20055;-69
2022/07/08 01:51:26;;;;;;;7.90;2.15;;;17.60;97.90;;;;;;2084026;28;20067;-69
2022/07/08 01:52:27;;;;;;;5.68;1.88;;;17.60;98.40;;;;;;2085311;28;20025;-69
2022/07/08 01:53:27;;;;;;;5.15;1.75;;;17.60;98.40;;;;;;2085184;28;20033;-69
2022/07/08 01:54:28;;;;;;;8.77;1.95;;;17.60;98.80;;;;;;2086141;28;20025;-69
2022/07/08 01:55:28;;;;;;;7.13;1.92;;;17.60;99.00;;;;;;2084839;28;20040;-69
2022/07/08 01:56:29;;;;;;;6.78;1.80;;;17.60;99.20;;;;;;2087337;28;20025;-69
2022/07/08 01:57:31;;;;;;;4.63;1.38;;;17.60;98.70;;;;;;2085970;28;20029;-69
2022/07/08 01:58:31;;;;;;;7.65;1.85;;;17.60;98.40;;;;;;2086922;28;20673;-69
2022/07/08 01:59:32;;;;;;;7.03;1.48;;;17.60;99.10;;;;;;2084803;28;20397;-69
2022/07/08 02:00:33;;;;;;;4.72;1.63;;;17.60;98.80;;;;;;2085960;28;20566;-69
2022/07/08 02:01:33;;;;;;;6.53;1.92;;;17.60;97.80;;;;;;2082954;28;20501;-69
2022/07/08 02:02:34;;;;;;;6.78;1.98;;;17.60;98.00;;;;;;2085714;28;20021;-69
2022/07/08 02:03:34;;;;;;;7.00;2.00;;;17.60;99.00;;;;;;2084574;28;20075;-69
2022/07/08 02:04:35;;;;;;;5.63;1.58;;;17.60;99.40;;;;;;2085256;28;20071;-69
2022/07/08 02:05:37;;;;;;;8.43;1.92;;;17.70;99.10;;;;;;2084206;28;20028;-69
2022/07/08 02:06:37;;;;;;;8.32;2.17;;;17.60;99.40;;;;;;2084571;28;20408;-69
2022/07/08 02:07:38;;;;;;;7.07;1.58;;;17.60;99.70;;;;;;2087105;28;20033;-69
2022/07/08 02:08:39;;;;;;;5.75;1.70;;;17.60;99.70;;;;;;2083858;28;20020;-69
2022/07/08 02:09:40;;;;;;;10.13;1.98;;;17.50;99.90;;;;;;2085546;28;20060;-69
2022/07/08 02:12:19;;;;;;;4.90;1.67;;;17.50;99.90;;;;;;2085043;28;20020;-69
2022/07/08 02:13:20;;;;;;;7.87;1.80;;;17.50;99.90;;;;;;2087876;28;20028;-69
2022/07/08 02:14:21;;;;;;;8.65;1.90;;;17.40;99.90;;;;;;2088844;28;20039;-69
2022/07/08 02:15:21;;;;;;;5.60;2.08;;;17.40;99.90;;;;;;2086883;28;20067;-69
2022/07/08 02:16:22;;;;;;;10.90;2.38;;;17.40;99.90;;;;;;2084617;28;21167;-69
2022/07/08 02:17:23;;;;;;;7.05;1.90;;;17.40;99.90;;;;;;2084404;28;20025;-69
2022/07/08 02:18:24;;;;;;;9.13;1.88;;;17.40;99.90;;;;;;2085852;28;20022;-69
2022/07/08 02:19:25;;;;;;;6.85;1.98;;;17.40;99.90;;;;;;2083397;28;20052;-69
2022/07/08 02:20:25;;;;;;;7.05;1.95;;;17.40;99.90;;;;;;2086029;28;20025;-69
2022/07/08 02:21:26;;;;;;;8.52;2.03;;;17.40;99.90;;;;;;2084104;28;20405;-69
2022/07/08 02:22:27;;;;;;;7.53;1.67;;;17.40;99.90;;;;;;2086308;28;20032;-69
2022/07/08 02:23:27;;;;;;;6.65;1.90;;;17.40;99.90;;;;;;2086496;28;20029;-69
2022/07/08 02:24:28;;;;;;;7.25;2.17;;;17.40;99.90;;;;;;2084540;28;20028;-69
2022/07/08 02:25:28;;;;;;;9.35;2.00;;;17.40;99.90;;;;;;2085211;28;20040;-69
2022/07/08 02:26:29;;;;;;;9.07;1.85;;;17.30;99.90;;;;;;2083631;28;20036;-69
2022/07/08 02:27:31;;;;;;;8.35;1.98;;;17.30;99.90;;;;;;2088740;28;20025;-69
2022/07/08 02:28:31;;;;;;;8.63;2.35;;;17.40;99.90;;;;;;2087987;28;20013;-69
2022/07/08 02:29:32;;;;;;;6.20;1.70;;;17.40;99.90;;;;;;2088599;28;20481;-69
2022/07/08 02:30:33;;;;;;;9.80;2.38;;;17.40;99.90;;;;;;2084147;28;20025;-69
2022/07/08 02:31:34;;;;;;;10.60;1.90;;;17.40;99.90;;;;;;2086877;28;20053;-69
2022/07/08 02:32:34;;;;;;;6.03;1.83;;;17.30;99.90;;;;;;2083730;28;20369;-69
2022/07/08 02:33:35;;;;;;;6.13;1.98;;;17.40;99.90;;;;;;2086364;28;20028;-69
2022/07/08 02:34:36;;;;;;;6.82;1.90;;;17.30;99.90;;;;;;2084760;28;20455;-69
2022/07/08 02:35:36;;;;;;;9.52;2.13;;;17.30;99.90;;;;;;2084242;28;20464;-69
2022/07/08 02:36:37;;;;;;;5.13;1.63;;;17.30;99.90;;;;;;2083892;28;20018;-69
2022/07/08 02:37:38;;;;;;;9.40;2.55;;;17.30;99.90;;;;;;2086564;28;20159;-69
2022/07/08 02:38:38;;;;;;;6.78;1.98;;;17.30;99.90;;;;;;2087488;28;20017;-69
2022/07/08 02:39:39;;;;;;;11.13;2.00;;;17.20;99.90;;;;;;2085507;28;20024;-69
2022/07/08 02:40:40;;;;;;;8.32;1.88;;;17.30;99.90;;;;;;2084780;28;20023;-69
2022/07/08 02:41:41;;;;;;;7.85;1.80;;;17.20;99.90;;;;;;2087118;28;20579;-69
2022/07/08 02:42:42;;;;;;;9.45;2.30;;;17.20;99.90;;;;;;2083530;28;20053;-69
2022/07/08 02:43:42;;;;;;;12.15;2.72;;;17.20;99.90;;;;;;2089344;28;20025;-69
2022/07/08 02:44:43;;;;;;;7.82;2.70;;;17.20;99.90;;;;;;2085061;28;20047;-69
2022/07/08 02:45:44;;;;;;;7.97;1.75;;;17.20;99.90;;;;;;2087076;28;20092;-69
2022/07/08 02:46:45;;;;;;;8.05;2.28;;;17.20;99.90;;;;;;2084120;28;20551;-69
2022/07/08 02:47:46;;;;;;;8.98;2.20;;;17.20;99.90;;;;;;2086141;28;20051;-69
2022/07/08 02:48:46;;;;;;;9.43;2.22;;;17.10;99.90;;;;;;2085535;28;20021;-69
2022/07/08 02:49:47;;;;;;;5.10;1.80;;;17.10;99.90;;;;;;2087141;28;20392;-69
2022/07/08 02:50:48;;;;;;;10.05;2.10;;;17.20;99.90;;;;;;2086576;28;20021;-69
2022/07/08 02:51:48;;;;;;;11.25;2.25;;;17.20;99.90;;;;;;2085176;28;20021;-69
2022/07/08 02:52:49;;;;;;;7.82;2.10;;;17.20;99.90;;;;;;2085717;28;20051;-69
2022/07/08 02:53:50;;;;;;;8.82;2.10;;;17.20;99.90;;;;;;2086290;28;20044;-69
2022/07/08 02:54:50;;;;;;;9.52;2.00;;;17.20;99.90;;;;;;2085954;28;20404;-69
2022/07/08 02:55:51;;;;;;;7.35;2.00;;;17.20;99.90;;;;;;2085352;28;20057;-69
2022/07/08 02:56:51;;;;;;;8.73;1.88;;;17.20;99.90;;;;;;2085978;28;20024;-69
2022/07/08 02:57:52;;;;;;;6.80;1.80;;;17.20;99.90;;;;;;2081682;28;20083;-69
2022/07/08 02:58:53;;;;;;;6.15;2.28;;;17.20;99.90;;;;;;2086937;28;20026;-69
2022/07/08 02:59:53;;;;;;;5.03;2.03;;;17.20;99.90;;;;;;2082643;28;20112;-69
2022/07/08 03:00:54;;;;;;;4.38;1.50;;;17.20;99.90;;;;;;2086437;28;20018;-69
2022/07/08 03:01:54;;;;;;;7.80;2.25;;;17.20;99.90;;;;;;2089461;28;20023;-69
2022/07/08 03:02:55;;;;;;;7.47;2.20;;;17.20;99.90;;;;;;2084938;28;20045;-69
2022/07/08 03:03:55;;;;;;;9.18;2.00;;;17.20;99.90;;;;;;2085427;28;20029;-69
2022/07/08 03:04:58;;;;;;;6.63;2.60;;;17.20;99.90;;;;;;2083195;28;20029;-69
2022/07/08 03:05:58;;;;;;;8.55;2.30;;;17.10;99.90;;;;;;2083350;28;20017;-69
2022/07/08 03:06:59;;;;;;;9.75;2.65;;;17.10;99.90;;;;;;2085583;28;20029;-69
2022/07/08 03:08:00;;;;;;;7.07;1.92;;;17.10;99.90;;;;;;2084964;28;20555;-69
2022/07/08 03:09:00;;;;;;;7.97;2.45;;;17.10;99.90;;;;;;2083777;28;20053;-69
2022/07/08 03:10:01;;;;;;;8.52;1.85;;;17.10;99.90;;;;;;2086147;28;20116;-69
2022/07/08 03:11:01;;;;;;;7.32;2.10;;;17.10;99.90;;;;;;2083748;28;20029;-69
2022/07/08 03:12:02;;;;;;;7.13;2.08;;;17.10;99.90;;;;;;2085931;28;20025;-69
2022/07/08 03:13:03;;;;;;;6.13;1.73;;;17.10;99.90;;;;;;2084040;28;20033;-69
2022/07/08 03:14:03;;;;;;;7.30;2.15;;;17.10;99.90;;;;;;2086270;28;20647;-69
2022/07/08 03:15:04;;;;;;;6.43;2.10;;;17.10;99.90;;;;;;2085305;28;20092;-69
2022/07/08 03:16:06;;;;;;;8.00;1.83;;;17.00;99.90;;;;;;2084099;28;20024;-69
2022/07/08 03:17:06;;;;;;;6.80;1.80;;;17.00;99.90;;;;;;2085414;28;20021;-69
2022/07/08 03:18:07;;;;;;;10.43;2.00;;;17.00;99.90;;;;;;2088578;28;20078;-69
2022/07/08 03:19:08;;;;;;;12.80;2.72;;;17.00;99.90;;;;;;2085284;28;20538;-69
2022/07/08 03:20:08;;;;;;;5.88;1.98;;;17.00;99.90;;;;;;2086111;28;20167;-69
2022/07/08 03:21:09;;;;;;;6.63;1.83;;;17.00;99.90;;;;;;2084859;28;20049;-69
2022/07/08 03:22:10;;;;;;;7.88;1.90;;;16.90;99.90;;;;;;2082767;28;20135;-69
2022/07/08 03:23:10;;;;;;;10.13;2.17;;;16.90;99.90;;;;;;2085052;28;20507;-69
2022/07/08 03:24:12;;;;;;;7.72;2.13;;;16.90;99.90;;;;;;2084736;28;20025;-69
2022/07/08 03:25:12;;;;;;;9.05;1.85;;;16.90;99.90;;;;;;2084486;28;20029;-69
2022/07/08 03:26:13;;;;;;;8.95;2.35;;;16.90;99.90;;;;;;2084084;28;20037;-69
2022/07/08 03:27:14;;;;;;;7.43;2.10;;;17.00;99.90;;;;;;2083961;28;20460;-69
2022/07/08 03:28:14;;;;;;;9.07;2.20;;;17.00;99.90;;;;;;2086157;28;20057;-69
2022/07/08 03:29:15;;;;;;;5.90;1.73;;;17.00;99.90;;;;;;2085575;28;20025;-69
2022/07/08 03:30:16;;;;;;;9.75;2.55;;;17.00;99.90;;;;;;2085846;28;20033;-69
2022/07/08 03:31:16;;;;;;;4.57;1.80;;;17.00;99.90;;;;;;2086062;28;20472;-69
2022/07/08 03:32:17;;;;;;;11.52;2.58;;;17.10;99.90;;;;;;2086535;28;20040;-69
2022/07/08 03:33:18;;;;;;;11.05;2.78;;;17.10;99.90;;;;;;2082793;28;20388;-69
2022/07/08 03:34:18;;;;;;;9.57;2.63;;;17.10;99.90;;;;;;2085150;28;20412;-69
2022/07/08 03:35:19;;;;;;;5.47;1.83;;;17.10;99.90;;;;;;2083485;28;20523;-69
2022/07/08 03:36:20;;;;;;;8.18;2.20;;;17.10;99.90;;;;;;2085141;28;20025;-69
2022/07/08 03:37:20;;;;;;;8.88;2.33;;;17.10;99.90;;;;;;2084310;28;20029;-69
2022/07/08 03:38:21;;;;;;;5.03;1.80;;;17.10;99.90;;;;;;2083046;28;20022;-69
2022/07/08 03:39:22;;;;;;;6.38;1.70;;;17.10;99.90;;;;;;2086461;28;20052;-69
2022/07/08 03:41:42;;;;;;;8.02;1.92;;;17.10;99.90;;;;;;2083147;28;20401;-69
2022/07/08 03:42:42;;;;;;;7.80;2.00;;;17.10;99.90;;;;;;2086471;28;20056;-69
2022/07/08 03:43:43;;;;;;;9.65;2.75;;;17.10;99.90;;;;;;2084159;28;20017;-69
2022/07/08 03:44:43;;;;;;;7.00;2.58;;;17.10;99.90;;;;;;2083034;28;20029;-69
2022/07/08 03:45:44;;;;;;;9.90;1.92;;;17.20;99.90;;;;;;2086999;28;20103;-69
2022/07/08 03:46:45;;;;;;;5.82;1.73;;;17.20;99.90;;;;;;2085588;28;20459;-69
2022/07/08 03:47:45;;;;;;;6.78;1.92;;;17.10;99.90;;;;;;2086306;28;20494;-69
2022/07/08 03:48:46;;;;;;;9.43;1.80;;;17.10;99.90;;;;;;2086747;28;20115;-69
2022/07/08 03:49:46;;;;;;;5.78;1.83;;;17.10;99.90;;;;;;2084289;28;20021;-69
2022/07/08 03:50:47;;;;;;;8.52;2.20;;;17.10;99.90;;;;;;2084379;28;20032;-69
2022/07/08 03:51:48;;;;;;;6.55;1.80;;;17.10;99.90;;;;;;2082254;28;20035;-69
2022/07/08 03:52:48;;;;;;;9.48;2.38;;;17.20;99.90;;;;;;2081900;28;20098;-69
2022/07/08 03:53:49;;;;;;;6.30;2.40;;;17.20;99.90;;;;;;2084659;28;20103;-69
2022/07/08 03:54:50;;;;;;;4.22;1.70;;;17.20;99.90;;;;;;2085941;28;20021;-69
2022/07/08 03:55:50;;;;;;;6.45;1.85;;;17.20;99.90;;;;;;2082575;28;20075;-69
2022/07/08 03:56:51;;;;;;;7.25;2.10;;;17.10;99.90;;;;;;2085433;28;20025;-69
2022/07/08 03:57:53;;;;;;;7.88;2.10;;;17.10;99.90;;;;;;2082732;28;20465;-69
2022/07/08 03:58:53;;;;;;;6.20;2.05;;;17.10;99.90;;;;;;2084485;28;20029;-69
2022/07/08 03:59:54;;;;;;;8.23;1.80;;;17.10;99.90;;;;;;2083948;28;20026;-69
2022/07/08 04:00:54;;;;;;;5.70;2.10;;;17.10;99.90;;;;;;2083602;28;20481;-69
2022/07/08 04:01:55;;;;;;;6.63;2.05;;;17.10;99.90;;;;;;2083902;28;20496;-69
2022/07/08 04:02:56;;;;;;;9.82;2.53;;;17.10;99.90;;;;;;2081699;28;20374;-69
2022/07/08 04:03:57;;;;;;;8.50;1.92;;;17.10;99.90;;;;;;2082827;28;20051;-69
2022/07/08 04:04:57;;;;;;;9.05;2.15;;;17.10;99.90;;;;;;2086751;28;20556;-69
2022/07/08 04:05:58;;;;;;;7.85;1.95;;;17.10;99.90;;;;;;2081494;28;20025;-70
2022/07/08 04:06:58;;;;;;;11.50;2.13;;;17.10;99.90;;;;;;2082436;28;20025;-69
2022/07/08 04:07:59;;;;;;;10.27;2.55;;;17.10;99.90;;;;;;2082096;28;20025;-69
2022/07/08 04:09:00;;;;;;;14.60;2.42;;;17.10;99.90;;;;;;2084128;28;20470;-69
2022/07/08 04:10:00;;;;;;;6.82;1.77;;;17.10;99.90;;;;;;2086586;28;20025;-69
2022/07/08 04:11:01;;;;;;;7.60;1.70;;;17.10;99.90;;;;;;2080931;28;20032;-69
2022/07/08 04:12:02;;;;;;;10.35;2.22;;;17.10;99.90;;;;;;2084043;28;20021;-69
2022/07/08 04:13:02;;;;;;;7.53;1.85;;;17.00;99.90;;;;;;2082212;28;20030;-69
2022/07/08 04:14:03;;;;;;;5.57;2.20;;;17.00;99.90;;;;;;2083894;28;20029;-69
2022/07/08 04:15:04;;;;;;;12.48;1.88;;;17.10;99.90;;;;;;2084729;28;20022;-69
2022/07/08 04:16:08;;;;;;;10.65;2.17;;;17.00;99.90;;;;;;2080150;28;20432;-69
2022/07/08 04:17:08;;;;;;;7.65;2.15;;;17.00;99.90;;;;;;2085684;28;20029;-69
2022/07/08 04:18:09;;;;;;;6.00;1.70;;;17.00;99.90;;;;;;2085911;28;20032;-69
2022/07/08 04:19:10;;;;;;;6.80;2.28;;;17.00;99.90;;;;;;2081198;28;20393;-69
2022/07/08 04:20:10;;;;;;;12.88;2.38;;;17.00;99.90;;;;;;2087102;28;20147;-69
2022/07/08 04:21:11;;;;;;;6.65;2.17;;;17.00;99.90;;;;;;2082224;28;20562;-69
2022/07/08 04:22:11;;;;;;;7.85;2.08;;;17.00;99.90;;;;;;2083788;28;20029;-69
2022/07/08 04:23:13;;;;;;;6.75;1.75;;;17.00;99.90;;;;;;2082565;28;20029;-69
2022/07/08 04:24:13;;;;;;;7.05;1.95;;;17.00;99.90;;;;;;2083384;28;20400;-69
2022/07/08 04:25:14;;;;;;;8.48;2.33;;;17.00;99.90;;;;;;2082286;28;20052;-69
2022/07/08 04:26:14;;;;;;;10.23;1.92;;;17.00;99.90;;;;;;2082885;28;20033;-69
2022/07/08 04:27:15;;;;;;;6.85;1.90;;;17.00;99.90;;;;;;2082605;28;20029;-69
2022/07/08 04:28:16;;;;;;;10.82;2.22;;;17.10;99.90;;;;;;2084485;28;20033;-69
2022/07/08 04:29:16;;;;;;;5.85;1.90;;;17.10;99.90;;;;;;2083675;28;20087;-69
2022/07/08 04:30:17;;;;;;;5.95;1.92;;;17.10;99.90;;;;;;2086843;28;20056;-69
2022/07/08 04:31:17;;;;;;;8.52;2.03;;;17.10;99.90;;;;;;2084011;28;20028;-69
2022/07/08 04:32:18;;;;;;;7.32;2.25;;;17.10;99.90;;;;;;2089958;28;20055;-69
2022/07/08 04:33:19;;;;;;;8.00;2.50;;;17.20;99.90;;;;;;2085653;28;20036;-69
2022/07/08 04:34:19;;;;;;;5.90;1.88;;;17.10;99.90;;;;;;2085533;28;20032;-69
2022/07/08 04:35:20;;;;;;;9.18;2.28;;;17.20;99.90;;;;;;2086975;28;20033;-69
2022/07/08 04:36:22;;;;;;;11.13;1.95;;;17.20;99.90;;;;;;2085640;28;20488;-69
2022/07/08 04:37:22;;;;;;;6.38;2.80;;;17.20;99.90;;;;;;2086222;28;20028;-69
2022/07/08 04:38:23;;;;;;;8.20;1.95;;;17.20;99.90;;;;;;2083821;28;20029;-69
2022/07/08 04:39:25;;;;;;;7.68;2.28;;;17.20;99.90;;;;;;2085513;28;20029;-69
2022/07/08 04:40:25;;;;;;;9.73;2.25;;;17.20;99.90;;;;;;2084353;28;20014;-69
2022/07/08 04:41:26;;;;;;;6.30;2.20;;;17.20;99.90;;;;;;2082604;28;20484;-69
2022/07/08 04:42:27;;;;;;;4.60;1.58;;;17.20;99.90;;;;;;2085462;28;20032;-69
2022/07/08 04:43:27;;;;;;;7.57;2.55;;;17.20;99.90;;;;;;2084426;28;20021;-69
2022/07/08 04:44:28;;;;;;;7.93;2.00;;;17.20;99.90;;;;;;2086526;28;20404;-69
2022/07/08 04:45:28;;;;;;;5.28;2.03;;;17.20;99.90;;;;;;2083878;28;20028;-69
2022/07/08 04:46:29;;;;;;;7.88;2.40;;;17.20;99.90;;;;;;2086583;28;20025;-69
2022/07/08 04:47:30;;;;;;;8.73;2.10;;;17.20;99.90;;;;;;2088527;28;20036;-69
2022/07/08 04:48:31;;;;;;;5.53;2.22;;;17.30;99.90;;;;;;2086669;28;20782;-69
2022/07/08 04:49:31;;;;;;;10.13;2.42;;;17.30;99.90;;;;;;2085603;28;20391;-69
2022/07/08 04:50:32;;;;;;;7.13;1.65;;;17.30;99.90;;;;;;2086223;28;20029;-69
2022/07/08 04:51:33;;;;;;;8.13;2.13;;;17.30;99.90;;;;;;2088579;28;20166;-69
2022/07/08 04:52:33;;;;;;;8.65;2.33;;;17.30;99.90;;;;;;2088372;28;20029;-69
2022/07/08 04:53:34;;;;;;;8.15;2.13;;;17.30;99.90;;;;;;2086641;28;20025;-69
2022/07/08 04:54:37;;;;;;;5.50;1.85;;;17.30;99.90;;;;;;2087386;28;20032;-69
2022/07/08 04:55:37;;;;;;;5.18;1.50;;;17.30;99.90;;;;;;2083223;28;20049;-69
2022/07/08 04:56:38;;;;;;;7.72;2.50;;;17.30;99.90;;;;;;2084947;28;20032;-69
2022/07/08 04:57:38;;;;;;;5.03;1.80;;;17.40;99.90;;;;;;2089502;28;20035;-69
2022/07/08 04:58:39;;;;;;;6.18;2.30;;;17.40;99.90;;;;;;2086161;28;20124;-69
2022/07/08 04:59:39;;;;;;;8.77;2.00;;;17.40;99.90;;;;;;2085736;28;20102;-69
2022/07/08 05:00:40;;;;;;;11.00;2.25;;;17.40;99.90;;;;;;2083952;28;20033;-69
2022/07/08 05:01:41;;;;;;;8.85;2.25;;;17.40;99.90;;;;;;2084943;28;20452;-69
2022/07/08 05:02:41;;;;;;;8.65;2.42;;;17.40;99.90;;;;;;2085954;28;20031;-69
2022/07/08 05:03:42;;;;;;;5.78;1.80;;;17.40;99.90;;;;;;2086704;28;20106;-69
2022/07/08 05:04:43;;;;;;;5.65;1.95;;;17.40;99.90;;;;;;2085407;28;20524;-69
2022/07/08 05:05:43;;;;;;;5.35;2.30;;;17.40;99.90;;;;;;2089468;28;20384;-69
2022/07/08 05:06:45;;;;;;;9.70;2.13;;;17.50;99.90;;;;;;2087446;28;20083;-69
2022/07/08 05:07:47;;;;;;;5.47;2.10;;;17.50;99.90;;;;;;2087365;28;20104;-69
2022/07/08 05:08:49;;;;;;;9.23;2.30;;;17.50;99.90;;;;;;2083907;28;20391;-69
2022/07/08 05:09:49;;;;;;;7.30;1.95;;;17.50;99.90;;;;;;2085791;28;20366;-69
2022/07/08 05:10:50;;;;;;;10.65;2.63;;;17.40;99.90;;;;;;2084554;28;20029;-69
2022/07/08 05:11:51;;;;;;;8.98;2.05;;;17.40;99.90;;;;;;2083173;28;20010;-69
2022/07/08 05:12:52;;;;;;;6.38;1.83;;;17.40;99.90;;;;;;2085733;28;20033;-69
2022/07/08 05:13:52;;;;;;;5.43;1.80;;;17.50;99.90;;;;;;2082899;28;20106;-69
2022/07/08 05:14:53;;;;;;;6.90;2.05;;;17.40;99.90;;;;;;2085814;28;20021;-69
2022/07/08 05:15:53;;;;;;;8.60;2.03;;;17.50;99.90;;;;;;2084240;28;20033;-69
2022/07/08 05:16:54;;;;;;;7.75;2.17;;;17.40;99.90;;;;;;2085315;28;20013;-69
2022/07/08 05:17:54;;;;;;;8.77;2.30;;;17.50;99.90;;;;;;2085351;28;20595;-69
2022/07/08 05:18:55;;;;;;;7.55;1.73;;;17.50;99.90;;;;;;2085459;28;20124;-69